Terminal Aerodrome Forecast
Issued by NWS

Home | Current Version | Previous Version | Text Only | Print | Product List | Glossary On
Versions: 1 2 3 4 5 6 7 8 9 10 11 12
000
FTUS45 KRIW 071100
TAFCPR
TAF
KCPR 071122Z 0712/0812 28008KT P6SM SKC
     FM071700 03015KT P6SM SCT070
     FM080400 05010KT P6SM BKN070=

USA.gov is the U.S. government's official web portal to all federal, state and local government web resources and services.